Time;durP1;ratioP1;P1;durP2;ratioP2;P2;SDS_P1;SDS_P2;PMS_P1;PMS_P2;Temp;Humidity;BMP_temperature;BMP_pressure;BME280_temperature;BME280_humidity;BME280_pressure;Samples;Min_cycle;Max_cycle;Signal;HPM_P1;HPM_P2
2022/07/25 00:00:15;;;;;;;7.78;7.00;;;24.80;54.10;;;;;;5035920;28;20547;-49
2022/07/25 00:02:44;;;;;;;7.43;6.63;;;24.70;54.00;;;;;;5035270;28;20042;-47
2022/07/25 00:05:11;;;;;;;7.25;6.65;;;24.70;54.10;;;;;;5033226;28;20076;-54
2022/07/25 00:07:40;;;;;;;6.60;6.00;;;24.70;54.10;;;;;;5042007;28;20501;-50
2022/07/25 00:10:08;;;;;;;7.78;6.63;;;24.60;54.10;;;;;;5042801;28;20115;-48
2022/07/25 00:12:37;;;;;;;6.90;6.13;;;24.60;54.30;;;;;;5043770;28;20049;-48
2022/07/25 00:15:05;;;;;;;7.28;6.63;;;24.50;54.30;;;;;;5051600;28;20049;-53
2022/07/25 00:17:31;;;;;;;6.88;6.28;;;24.50;54.50;;;;;;5038548;28;20042;-50
2022/07/25 00:20:01;;;;;;;9.48;6.90;;;24.50;54.90;;;;;;5040075;28;20041;-51
2022/07/25 00:22:29;;;;;;;7.68;7.00;;;24.50;54.80;;;;;;5043183;28;20037;-50
2022/07/25 00:24:57;;;;;;;7.65;6.88;;;24.40;54.60;;;;;;5051925;28;20045;-50
2022/07/25 00:27:24;;;;;;;7.15;6.47;;;24.40;54.60;;;;;;5038656;28;20047;-49
2022/07/25 00:29:53;;;;;;;7.78;7.03;;;24.30;54.70;;;;;;5042215;28;20041;-51
2022/07/25 00:32:21;;;;;;;6.88;6.00;;;24.30;54.80;;;;;;5035472;28;20119;-47
2022/07/25 00:34:51;;;;;;;6.88;6.20;;;24.30;55.00;;;;;;5050136;28;20045;-50
2022/07/25 00:37:18;;;;;;;7.07;6.30;;;24.20;55.30;;;;;;5038063;28;20040;-54
2022/07/25 00:39:45;;;;;;;7.38;6.65;;;24.20;55.20;;;;;;5034465;28;20033;-47
2022/07/25 00:42:23;;;;;;;8.40;6.03;;;24.20;55.20;;;;;;5042426;28;20153;-47
2022/07/25 00:44:50;;;;;;;;;;;24.20;55.10;;;;;;5051705;28;20079;-48
2022/07/25 00:47:22;;;;;;;;;;;24.20;54.20;;;;;;5029915;28;19921;-49
2022/07/25 00:49:53;;;;;;;5.90;5.38;;;24.20;53.50;;;;;;5039768;28;20324;-51
2022/07/25 00:52:22;;;;;;;6.28;5.70;;;24.10;54.30;;;;;;5010946;28;20057;-48
2022/07/25 00:54:50;;;;;;;7.55;6.85;;;24.10;54.80;;;;;;5002260;28;20042;-48
2022/07/25 00:57:17;;;;;;;7.07;6.38;;;24.10;55.10;;;;;;5040871;28;20071;-49
2022/07/25 00:59:46;;;;;;;7.05;6.45;;;24.10;55.30;;;;;;5046261;28;20087;-48
2022/07/25 01:02:13;;;;;;;6.60;6.10;;;24.00;55.30;;;;;;5043992;28;20041;-49
2022/07/25 01:04:43;;;;;;;6.95;6.25;;;24.00;55.50;;;;;;5032320;28;20041;-49
2022/07/25 01:07:09;;;;;;;7.38;6.68;;;23.90;55.50;;;;;;5044437;28;20052;-51
2022/07/25 01:09:41;;;;;;;6.53;5.93;;;23.90;55.60;;;;;;5045584;28;20041;-50
2022/07/25 01:12:08;;;;;;;6.68;6.03;;;23.90;55.70;;;;;;5046417;28;20040;-47
2022/07/25 01:14:37;;;;;;;7.90;5.70;;;23.90;55.70;;;;;;5027544;28;20072;-47
2022/07/25 01:17:12;;;;;;;6.22;5.68;;;23.80;55.80;;;;;;5038445;28;20040;-48
2022/07/25 01:19:38;;;;;;;7.45;5.80;;;23.80;55.70;;;;;;5030189;28;20042;-47
2022/07/25 01:22:08;;;;;;;7.68;6.50;;;23.70;55.80;;;;;;5029049;28;20033;-48
2022/07/25 01:24:38;;;;;;;6.53;5.90;;;23.70;55.90;;;;;;5023806;28;20029;-52
2022/07/25 01:27:08;;;;;;;6.07;5.57;;;23.70;55.80;;;;;;5040435;28;20044;-50
2022/07/25 01:29:43;;;;;;;5.78;5.18;;;23.70;55.90;;;;;;5050850;28;20041;-49
2022/07/25 01:32:13;;;;;;;7.03;6.00;;;23.60;56.00;;;;;;5035404;28;20527;-50
2022/07/25 01:34:39;;;;;;;6.65;6.05;;;23.60;56.30;;;;;;5042268;28;20037;-48
2022/07/25 01:37:09;;;;;;;7.25;5.93;;;23.60;56.20;;;;;;5048543;28;20069;-47
2022/07/25 01:39:36;;;;;;;5.80;5.30;;;23.60;56.20;;;;;;5035976;28;20049;-48
2022/07/25 01:42:07;;;;;;;6.25;5.65;;;23.50;56.20;;;;;;5035907;28;20553;-47
2022/07/25 01:44:36;;;;;;;6.53;5.90;;;23.50;56.20;;;;;;5033361;28;20069;-49
2022/07/25 01:47:05;;;;;;;7.38;5.78;;;23.50;56.40;;;;;;5041873;28;20029;-47
2022/07/25 01:49:34;;;;;;;6.72;6.13;;;23.50;56.60;;;;;;5037956;28;20399;-51
2022/07/25 01:52:03;;;;;;;6.78;5.22;;;23.40;56.60;;;;;;5044499;28;20040;-51
2022/07/25 01:54:30;;;;;;;6.53;5.82;;;23.40;56.60;;;;;;5043713;28;20041;-49
2022/07/25 01:56:57;;;;;;;6.53;5.45;;;23.30;56.80;;;;;;5029734;28;20048;-51
2022/07/25 01:59:24;;;;;;;5.80;5.30;;;23.30;56.90;;;;;;5038195;28;20041;-49
2022/07/25 02:01:52;;;;;;;6.60;5.45;;;23.30;56.90;;;;;;5027663;28;20414;-50
2022/07/25 02:04:22;;;;;;;5.97;5.28;;;23.30;57.00;;;;;;5037658;28;20037;-51
2022/07/25 02:06:51;;;;;;;6.70;6.00;;;23.30;56.90;;;;;;5045559;28;20044;-47
2022/07/25 02:09:21;;;;;;;5.93;5.43;;;23.30;57.00;;;;;;5031346;28;20143;-51
2022/07/25 02:11:48;;;;;;;7.38;6.30;;;23.20;56.90;;;;;;5036915;28;20091;-49
2022/07/25 02:14:14;;;;;;;6.40;5.18;;;23.20;57.10;;;;;;5045267;28;20057;-49
2022/07/25 02:16:41;;;;;;;7.00;5.97;;;23.20;57.20;;;;;;5050086;28;20041;-51
2022/07/25 02:19:08;;;;;;;7.25;4.97;;;23.20;57.30;;;;;;5030429;28;20037;-47
2022/07/25 02:21:36;;;;;;;5.82;5.15;;;23.10;57.30;;;;;;5040253;28;20045;-50
2022/07/25 02:24:09;;;;;;;6.13;5.60;;;23.10;57.30;;;;;;5045754;28;20111;-52
2022/07/25 02:26:36;;;;;;;6.50;5.30;;;23.10;57.40;;;;;;5053712;28;20041;-51
2022/07/25 02:29:06;;;;;;;6.18;5.57;;;23.10;57.50;;;;;;5047062;28;20575;-50
2022/07/25 02:31:35;;;;;;;6.90;6.25;;;23.10;57.80;;;;;;5041003;28;20036;-47
2022/07/25 02:34:02;;;;;;;5.68;5.15;;;23.10;57.60;;;;;;5045401;28;20494;-52
2022/07/25 02:36:29;;;;;;;6.60;5.85;;;23.10;57.70;;;;;;5053214;28;20424;-48
2022/07/25 02:38:56;;;;;;;6.00;5.40;;;23.10;57.80;;;;;;5034537;28;20037;-48
2022/07/25 02:41:25;;;;;;;9.02;5.75;;;23.00;57.90;;;;;;5045434;28;20052;-50
2022/07/25 02:43:54;;;;;;;8.00;5.90;;;23.00;57.90;;;;;;5049635;28;20059;-49
2022/07/25 02:46:25;;;;;;;6.57;5.57;;;23.00;58.10;;;;;;5038144;28;20046;-52
2022/07/25 02:48:54;;;;;;;6.25;5.65;;;23.00;58.10;;;;;;5042650;28;20111;-52
2022/07/25 02:51:21;;;;;;;5.78;5.03;;;23.00;58.00;;;;;;5037635;28;20049;-48
2022/07/25 02:53:51;;;;;;;5.63;5.13;;;23.00;58.00;;;;;;5053574;28;20441;-51
2022/07/25 02:56:24;;;;;;;;;;;23.00;58.10;;;;;;5034140;28;20033;-47
2022/07/25 02:58:53;;;;;;;6.57;5.22;;;23.00;57.30;;;;;;5037167;28;19960;-49
2022/07/25 03:01:26;;;;;;;5.97;5.35;;;23.00;57.50;;;;;;5033663;28;20510;-48
2022/07/25 03:03:56;;;;;;;6.13;5.53;;;22.90;57.70;;;;;;5033479;28;20102;-50
2022/07/25 03:06:23;;;;;;;6.32;5.70;;;22.90;57.80;;;;;;5029648;28;20038;-47
2022/07/25 03:08:49;;;;;;;7.00;6.30;;;22.80;58.00;;;;;;5041511;28;20041;-50
2022/07/25 03:11:19;;;;;;;7.25;5.50;;;22.90;58.10;;;;;;5036424;28;20409;-48
2022/07/25 03:13:46;;;;;;;5.85;5.28;;;22.90;58.20;;;;;;5037811;28;20046;-50
2022/07/25 03:16:16;;;;;;;5.70;4.93;;;22.90;58.30;;;;;;5034426;28;20563;-53
2022/07/25 03:18:43;;;;;;;7.40;5.85;;;22.90;58.50;;;;;;5039048;28;20485;-47
2022/07/25 03:21:12;;;;;;;6.30;5.70;;;22.80;58.40;;;;;;5044613;28;20041;-48
2022/07/25 03:23:39;;;;;;;6.60;6.00;;;22.80;58.50;;;;;;5052513;28;20451;-51
2022/07/25 03:26:06;;;;;;;6.65;5.60;;;22.80;58.60;;;;;;5028281;28;20062;-49
2022/07/25 03:28:37;;;;;;;6.35;5.40;;;22.80;58.60;;;;;;5040987;28;20045;-50
2022/07/25 03:31:09;;;;;;;6.82;5.40;;;22.80;58.80;;;;;;5051598;28;20703;-47
2022/07/25 03:33:36;;;;;;;5.70;5.15;;;22.80;58.70;;;;;;5045111;28;20052;-55
2022/07/25 03:36:03;;;;;;;6.75;5.75;;;22.80;58.80;;;;;;5038870;28;20103;-50
2022/07/25 03:38:30;;;;;;;7.32;5.63;;;22.80;58.90;;;;;;5039664;28;20093;-48
2022/07/25 03:40:57;;;;;;;6.63;5.90;;;22.80;58.90;;;;;;5036846;28;20112;-47
2022/07/25 03:43:28;;;;;;;7.43;5.95;;;22.80;58.90;;;;;;5036056;28;20085;-50
2022/07/25 03:45:55;;;;;;;8.20;5.77;;;22.80;59.30;;;;;;5029932;28;20045;-50
2022/07/25 03:48:23;;;;;;;6.18;5.65;;;22.80;59.00;;;;;;5033867;28;20067;-49
2022/07/25 03:50:58;;;;;;;6.45;5.85;;;22.70;59.00;;;;;;5036416;28;20412;-53
2022/07/25 03:54:00;;;;;;;;;;;22.80;59.70;;;;;;5032140;28;20084;-50
2022/07/25 03:56:22;;;;;;;6.45;5.78;;;22.80;58.40;;;;;;5034103;28;20384;-49
2022/07/25 03:58:54;;;;;;;7.07;5.85;;;22.80;58.70;;;;;;5034087;28;20095;-49
2022/07/25 04:01:21;;;;;;;6.45;5.72;;;22.80;59.10;;;;;;5033380;28;20042;-49
2022/07/25 04:03:51;;;;;;;8.63;6.43;;;22.70;59.20;;;;;;5032511;28;20034;-51
2022/07/25 04:06:19;;;;;;;7.78;6.50;;;22.80;59.60;;;;;;5030930;28;20473;-51
2022/07/25 04:08:49;;;;;;;7.45;6.20;;;22.80;59.50;;;;;;5028298;28;20048;-47
2022/07/25 04:11:20;;;;;;;7.72;6.28;;;22.80;59.50;;;;;;5032772;28;20447;-48
2022/07/25 04:13:47;;;;;;;6.85;6.07;;;22.80;59.50;;;;;;5033487;28;20033;-48
2022/07/25 04:16:19;;;;;;;7.85;6.18;;;22.80;59.60;;;;;;5033910;28;20068;-46
2022/07/25 04:18:49;;;;;;;9.35;6.10;;;22.80;59.60;;;;;;5029990;28;20084;-46
2022/07/25 04:21:17;;;;;;;8.48;6.63;;;22.80;59.70;;;;;;5012412;28;20064;-51
2022/07/25 04:23:44;;;;;;;7.15;5.78;;;22.80;59.70;;;;;;5030683;28;20086;-46
2022/07/25 04:26:14;;;;;;;6.13;5.53;;;22.90;59.80;;;;;;5016077;28;20048;-51
2022/07/25 04:28:43;;;;;;;7.32;5.80;;;22.90;59.80;;;;;;5038984;28;20041;-52
2022/07/25 04:31:12;;;;;;;7.88;6.03;;;22.90;59.80;;;;;;5031282;28;20100;-51
2022/07/25 04:33:41;;;;;;;7.75;6.60;;;22.90;59.80;;;;;;5038802;28;20045;-48
2022/07/25 04:36:08;;;;;;;7.18;6.47;;;22.90;59.80;;;;;;5043453;28;20079;-52
2022/07/25 04:38:35;;;;;;;6.40;5.78;;;23.00;59.40;;;;;;5052142;28;20041;-51
2022/07/25 04:41:03;;;;;;;7.15;6.45;;;23.00;59.50;;;;;;5031154;28;20030;-47
2022/07/25 04:43:30;;;;;;;8.73;6.00;;;23.00;59.70;;;;;;5040545;28;20045;-49
2022/07/25 04:46:04;;;;;;;6.82;6.13;;;23.00;59.70;;;;;;5052612;22;20045;-46
2022/07/25 04:48:35;;;;;;;7.75;6.30;;;23.00;59.60;;;;;;5032207;28;20041;-45
2022/07/25 04:51:03;;;;;;;7.50;6.20;;;23.10;59.50;;;;;;5033924;28;20064;-47
2022/07/25 04:53:39;;;;;;;7.30;6.00;;;23.10;59.50;;;;;;5028114;28;20045;-45
2022/07/25 04:56:06;;;;;;;7.05;6.35;;;23.10;60.10;;;;;;5035389;28;20052;-46
2022/07/25 04:58:43;;;;;;;7.18;5.40;;;23.20;59.70;;;;;;5027658;28;20128;-47
2022/07/25 05:01:09;;;;;;;7.40;6.15;;;23.20;59.80;;;;;;5035113;28;20041;-47
2022/07/25 05:03:38;;;;;;;7.45;5.93;;;23.20;59.70;;;;;;5040888;28;20041;-46
2022/07/25 05:06:05;;;;;;;7.65;5.35;;;23.30;60.00;;;;;;5041168;28;20056;-46
2022/07/25 05:08:35;;;;;;;7.22;5.78;;;23.30;60.10;;;;;;5024779;28;20045;-46
2022/07/25 05:11:01;;;;;;;7.75;5.15;;;23.30;60.10;;;;;;5041406;28;20041;-46
2022/07/25 05:13:28;;;;;;;6.25;5.65;;;23.30;60.00;;;;;;5042325;28;20106;-45
2022/07/25 05:15:56;;;;;;;5.75;5.25;;;23.40;60.20;;;;;;5043679;28;20049;-46
2022/07/25 05:18:23;;;;;;;6.45;5.85;;;23.40;60.20;;;;;;5037613;28;20041;-45
2022/07/25 05:20:57;;;;;;;6.75;5.75;;;23.50;60.40;;;;;;5037932;28;20068;-46
2022/07/25 05:23:24;;;;;;;6.68;5.82;;;23.50;60.30;;;;;;5029534;28;20037;-46
2022/07/25 05:25:51;;;;;;;6.57;5.85;;;23.50;60.40;;;;;;5025735;28;20045;-46
2022/07/25 05:28:18;;;;;;;11.57;5.85;;;23.60;60.60;;;;;;5017121;28;20528;-45
2022/07/25 05:30:44;;;;;;;8.77;5.88;;;23.60;60.80;;;;;;5037065;28;20049;-47
2022/07/25 05:33:14;;;;;;;6.55;5.95;;;23.60;60.70;;;;;;5048116;28;20041;-47
2022/07/25 05:35:43;;;;;;;6.68;5.38;;;23.70;60.70;;;;;;5036649;28;20124;-45
2022/07/25 05:38:12;;;;;;;6.72;5.70;;;23.70;61.10;;;;;;5043076;28;20048;-46
2022/07/25 05:40:44;;;;;;;6.20;5.60;;;23.80;60.70;;;;;;5043650;28;20095;-44
2022/07/25 05:43:11;;;;;;;7.28;5.68;;;23.90;61.20;;;;;;5034701;28;20048;-45
2022/07/25 05:45:39;;;;;;;7.93;6.38;;;24.00;61.00;;;;;;5025708;28;20064;-45
2022/07/25 05:48:06;;;;;;;7.97;5.75;;;24.00;61.20;;;;;;5033583;28;20042;-46
2022/07/25 05:50:35;;;;;;;7.20;6.05;;;24.10;61.80;;;;;;5020200;28;20141;-47
2022/07/25 05:53:01;;;;;;;6.43;5.30;;;24.20;61.80;;;;;;5033190;28;20508;-48
2022/07/25 05:55:28;;;;;;;6.47;5.75;;;24.30;61.40;;;;;;5040184;28;20048;-47
2022/07/25 05:57:55;;;;;;;6.18;5.57;;;24.50;61.10;;;;;;5050865;28;20048;-46
2022/07/25 06:00:22;;;;;;;7.20;5.63;;;24.60;60.80;;;;;;5040795;28;20041;-46
2022/07/25 06:02:51;;;;;;;6.05;5.47;;;24.70;60.90;;;;;;5041944;28;20033;-45
2022/07/25 06:05:18;;;;;;;10.30;5.70;;;24.90;60.70;;;;;;5030474;28;20041;-52
2022/07/25 06:07:45;;;;;;;6.15;5.45;;;25.00;60.40;;;;;;5035620;28;20103;-46
2022/07/25 06:10:12;;;;;;;9.48;5.70;;;25.20;60.40;;;;;;5036711;28;20112;-49
2022/07/25 06:12:40;;;;;;;8.43;5.18;;;25.30;59.90;;;;;;5040493;28;20049;-47
2022/07/25 06:15:08;;;;;;;5.70;5.22;;;25.50;60.60;;;;;;5049920;28;20129;-46
2022/07/25 06:17:48;;;;;;;5.20;4.80;;;25.60;59.90;;;;;;5032758;28;20033;-47
2022/07/25 06:20:14;;;;;;;6.10;4.30;;;25.80;57.10;;;;;;5040287;28;20057;-47
2022/07/25 06:22:41;;;;;;;4.70;4.30;;;25.90;54.90;;;;;;5028787;28;20125;-46
2022/07/25 06:25:09;;;;;;;5.85;4.88;;;26.00;55.40;;;;;;5035272;28;20466;-45
2022/07/25 06:27:37;;;;;;;5.32;4.78;;;26.10;54.00;;;;;;5040748;28;20498;-45
2022/07/25 06:30:05;;;;;;;7.18;5.45;;;26.20;54.10;;;;;;5049868;28;20453;-46
2022/07/25 06:32:51;;;;;;;5.82;4.45;;;26.40;54.00;;;;;;5039053;28;20048;-45
2022/07/25 06:35:17;;;;;;;6.43;5.28;;;26.50;52.20;;;;;;5036793;28;20044;-47
2022/07/25 06:37:44;;;;;;;6.82;5.32;;;26.70;51.50;;;;;;5038611;28;20474;-49
2022/07/25 06:40:13;;;;;;;5.47;4.80;;;26.80;51.00;;;;;;5029966;28;20038;-50
2022/07/25 06:42:42;;;;;;;6.38;5.00;;;26.90;50.70;;;;;;5026737;28;20449;-46
2022/07/25 06:45:14;;;;;;;6.07;5.15;;;27.00;51.20;;;;;;5039756;28;20041;-45
2022/07/25 06:47:45;;;;;;;5.70;5.13;;;27.10;49.90;;;;;;5043715;28;20048;-47
2022/07/25 06:50:18;;;;;;;6.20;5.03;;;27.30;50.00;;;;;;5039810;28;20541;-47
2022/07/25 06:52:53;;;;;;;5.70;4.97;;;27.30;49.80;;;;;;5036152;28;20053;-47
2022/07/25 06:55:22;;;;;;;7.80;5.40;;;27.40;49.90;;;;;;5026505;28;20041;-46
2022/07/25 06:57:49;;;;;;;5.88;5.03;;;27.40;49.50;;;;;;5028073;28;20095;-48
2022/07/25 07:00:16;;;;;;;5.38;4.88;;;27.50;49.20;;;;;;5032814;28;20115;-46
2022/07/25 07:02:57;;;;;;;5.22;4.70;;;27.50;49.00;;;;;;5028486;28;20112;-47
2022/07/25 07:05:28;;;;;;;5.10;4.47;;;27.60;48.30;;;;;;5033665;28;20072;-47
2022/07/25 07:08:00;;;;;;;5.22;4.82;;;27.60;48.60;;;;;;5028655;28;20042;-48
2022/07/25 07:10:27;;;;;;;5.93;5.22;;;27.60;48.40;;;;;;5043637;28;20040;-51
2022/07/25 07:13:09;;;;;;;6.18;5.68;;;27.60;48.40;;;;;;5043333;28;20049;-47
2022/07/25 07:15:42;;;;;;;5.97;5.38;;;27.70;48.50;;;;;;5052990;28;20143;-45
2022/07/25 07:18:09;;;;;;;7.10;5.50;;;27.70;48.20;;;;;;5032735;28;20049;-46
2022/07/25 07:20:36;;;;;;;5.45;4.70;;;27.70;48.70;;;;;;5037556;28;20037;-45
2022/07/25 07:23:08;;;;;;;5.97;5.43;;;27.70;48.00;;;;;;5043563;28;20132;-45
2022/07/25 07:25:37;;;;;;;7.35;5.25;;;27.80;48.40;;;;;;5033104;28;20052;-49
2022/07/25 07:28:08;;;;;;;6.43;5.47;;;27.80;47.90;;;;;;5032266;28;20045;-47
2022/07/25 07:30:36;;;;;;;5.40;4.65;;;27.80;47.90;;;;;;5042905;28;20069;-50
2022/07/25 07:33:22;;;;;;;6.00;5.40;;;27.80;48.10;;;;;;5036327;28;20119;-47
2022/07/25 07:35:50;;;;;;;7.88;5.20;;;27.80;48.00;;;;;;5049483;28;20064;-48
2022/07/25 07:38:18;;;;;;;7.18;5.25;;;27.80;48.10;;;;;;5031402;28;20044;-46
2022/07/25 07:40:45;;;;;;;5.65;5.15;;;27.80;48.20;;;;;;5045535;28;20044;-46
2022/07/25 07:43:12;;;;;;;6.85;5.55;;;27.80;48.40;;;;;;5044078;28;20524;-45
2022/07/25 07:45:40;;;;;;;6.93;5.88;;;27.80;48.30;;;;;;5052491;28;20100;-45
2022/07/25 07:48:07;;;;;;;5.88;5.07;;;27.80;48.60;;;;;;5042467;28;20045;-47
2022/07/25 07:50:36;;;;;;;5.97;5.28;;;27.90;48.70;;;;;;5042659;28;20056;-50
2022/07/25 07:53:08;;;;;;;7.00;5.03;;;27.90;48.90;;;;;;5043009;28;20045;-46
2022/07/25 07:55:44;;;;;;;5.93;5.32;;;27.90;48.50;;;;;;5044817;28;20069;-46
2022/07/25 07:58:17;;;;;;;6.00;5.40;;;27.90;48.90;;;;;;5032384;28;20501;-46
2022/07/25 08:00:47;;;;;;;;;;;27.90;48.30;;;;;;5035720;28;20057;-51
2022/07/25 08:03:24;;;;;;;10.77;6.05;;;28.00;48.60;;;;;;5050625;28;19975;-47
2022/07/25 08:05:51;;;;;;;7.35;4.72;;;28.00;48.10;;;;;;5052434;28;20452;-46
2022/07/25 08:08:21;;;;;;;10.05;5.43;;;28.00;48.30;;;;;;5021941;28;20041;-45
2022/07/25 08:10:51;;;;;;;20.38;6.78;;;28.00;47.80;;;;;;5042012;28;20041;-50
2022/07/25 08:13:27;;;;;;;8.90;5.72;;;28.00;47.80;;;;;;5034108;28;20406;-46
2022/07/25 08:16:02;;;;;;;4.97;4.15;;;28.00;48.20;;;;;;5026403;28;20120;-47
2022/07/25 08:18:32;;;;;;;5.00;4.25;;;28.00;47.20;;;;;;5036783;28;20044;-46
2022/07/25 08:21:02;;;;;;;6.90;4.50;;;28.00;47.00;;;;;;5042768;28;20064;-46
2022/07/25 08:23:37;;;;;;;4.60;4.00;;;27.90;46.60;;;;;;5050776;28;20048;-46
2022/07/25 08:26:10;;;;;;;5.47;4.20;;;27.90;46.70;;;;;;5031705;28;20502;-47
2022/07/25 08:28:36;;;;;;;3.92;3.63;;;27.80;46.30;;;;;;5039522;28;20041;-50
2022/07/25 08:31:06;;;;;;;4.80;4.25;;;27.70;46.10;;;;;;5048958;28;20087;-46
2022/07/25 08:33:37;;;;;;;3.90;3.53;;;27.70;46.30;;;;;;5032983;28;20044;-47
2022/07/25 08:36:09;;;;;;;4.05;3.72;;;27.60;46.40;;;;;;5037764;28;20502;-47
2022/07/25 08:38:36;;;;;;;;;;;27.50;46.50;;;;;;5041761;28;20094;-46
2022/07/25 08:41:03;;;;;;;5.90;3.78;;;27.50;46.90;;;;;;5037625;28;19960;-50
2022/07/25 08:43:36;;;;;;;3.97;3.25;;;27.40;47.20;;;;;;5038829;28;20068;-46
2022/07/25 08:46:08;;;;;;;4.55;4.10;;;27.40;46.60;;;;;;5048609;28;20048;-51
2022/07/25 08:48:36;;;;;;;5.88;3.70;;;27.40;46.80;;;;;;5037676;28;20123;-44
2022/07/25 08:51:06;;;;;;;3.90;3.60;;;27.40;46.80;;;;;;5040408;28;20083;-47
2022/07/25 08:53:34;;;;;;;4.30;3.42;;;27.30;46.00;;;;;;5035700;28;20103;-46
2022/07/25 08:56:06;;;;;;;6.40;3.50;;;27.30;46.50;;;;;;5033713;28;22058;-44
2022/07/25 08:58:44;;;;;;;6.53;3.45;;;27.40;45.80;;;;;;5042995;28;20041;-46
2022/07/25 09:01:14;;;;;;;3.50;3.20;;;27.40;45.70;;;;;;5041634;28;20087;-46
2022/07/25 09:03:42;;;;;;;3.45;3.17;;;27.40;46.00;;;;;;5049877;28;20055;-46
2022/07/25 09:06:20;;;;;;;4.05;3.08;;;27.50;46.50;;;;;;5022195;28;20543;-48
2022/07/25 09:08:57;;;;;;;3.30;3.00;;;27.60;45.70;;;;;;5039387;28;20134;-49
2022/07/25 09:11:30;;;;;;;3.55;2.70;;;27.70;45.80;;;;;;5024786;28;20042;-46
2022/07/25 09:14:11;;;;;;;4.95;3.20;;;27.80;45.30;;;;;;5033600;28;20044;-46
2022/07/25 09:16:43;;;;;;;4.28;2.90;;;27.80;44.80;;;;;;5042859;28;20495;-45
2022/07/25 09:19:14;;;;;;;4.45;2.65;;;27.90;44.90;;;;;;5030101;28;20052;-47
2022/07/25 09:21:58;;;;;;;2.97;2.72;;;27.90;44.50;;;;;;5026099;28;20049;-45
2022/07/25 09:24:28;;;;;;;3.38;2.33;;;28.00;43.80;;;;;;5037967;28;20056;-47
2022/07/25 09:27:00;;;;;;;4.38;2.63;;;28.00;44.10;;;;;;5034779;28;20465;-50
2022/07/25 09:29:27;;;;;;;;;;;28.10;44.10;;;;;;5030657;28;20120;-47
2022/07/25 09:31:55;;;;;;;2.80;2.10;;;28.20;44.80;;;;;;5021189;28;20381;-50
2022/07/25 09:34:39;;;;;;;3.60;2.30;;;28.20;44.70;;;;;;5037987;28;20041;-49
2022/07/25 09:37:11;;;;;;;2.60;1.70;;;28.20;43.10;;;;;;5048433;28;20416;-49
2022/07/25 09:39:46;;;;;;;2.55;2.00;;;28.30;43.80;;;;;;5035925;28;20556;-48
2022/07/25 09:42:31;;;;;;;1.90;1.80;;;28.30;43.80;;;;;;5039407;28;20179;-49
2022/07/25 09:45:02;;;;;;;2.28;2.08;;;28.30;43.40;;;;;;5046942;28;20065;-47
2022/07/25 09:47:32;;;;;;;3.03;1.70;;;28.40;43.10;;;;;;5032664;28;20041;-47
2022/07/25 09:50:03;;;;;;;;;;;28.40;43.20;;;;;;5030621;28;20046;-48
2022/07/25 09:52:32;;;;;;;3.08;2.42;;;28.50;44.00;;;;;;5043300;28;20296;-45
2022/07/25 09:55:02;;;;;;;3.53;1.90;;;28.50;43.70;;;;;;5047226;28;20044;-47
2022/07/25 09:57:29;;;;;;;4.75;1.90;;;28.60;43.90;;;;;;5032193;28;20041;-46
2022/07/25 09:59:58;;;;;;;4.85;2.63;;;28.70;43.90;;;;;;5030492;28;20560;-48
2022/07/25 10:03:05;;;;;;;4.55;2.10;;;28.70;43.40;;;;;;5041293;28;20489;-49
2022/07/25 10:05:50;;;;;;;3.28;2.78;;;28.80;42.80;;;;;;5009287;28;20038;-51
2022/07/25 10:08:21;;;;;;;3.60;2.15;;;28.90;43.00;;;;;;5028824;28;20037;-48
2022/07/25 10:10:48;;;;;;;2.97;2.30;;;28.80;43.20;;;;;;5040308;28;20033;-46
2022/07/25 10:13:27;;;;;;;3.30;2.53;;;28.80;43.10;;;;;;5037419;28;20045;-47
2022/07/25 10:15:54;;;;;;;3.75;2.97;;;28.80;42.50;;;;;;5023825;28;20037;-45
2022/07/25 10:18:25;;;;;;;2.65;2.28;;;28.80;42.90;;;;;;5035284;28;20045;-49
2022/07/25 10:21:06;;;;;;;3.33;2.40;;;28.80;43.00;;;;;;5040834;28;20033;-45
2022/07/25 10:24:06;;;;;;;3.00;2.42;;;28.90;42.80;;;;;;5026846;28;20478;-46
2022/07/25 10:26:38;;;;;;;3.38;1.83;;;28.90;42.70;;;;;;5024274;28;20038;-50
2022/07/25 10:29:11;;;;;;;4.65;2.03;;;28.90;42.20;;;;;;5028774;28;20038;-47
2022/07/25 10:31:46;;;;;;;2.63;1.77;;;28.90;41.90;;;;;;5040746;28;20045;-51
2022/07/25 10:34:28;;;;;;;3.00;1.95;;;28.90;42.00;;;;;;5053807;28;20524;-45
2022/07/25 10:37:11;;;;;;;2.58;1.77;;;28.90;42.30;;;;;;5035583;28;20045;-46
2022/07/25 10:39:43;;;;;;;2.60;2.40;;;28.90;43.30;;;;;;5046173;28;20037;-49
2022/07/25 10:42:19;;;;;;;5.17;3.10;;;28.90;42.60;;;;;;5037082;28;20056;-46
2022/07/25 10:44:56;;;;;;;3.00;2.67;;;28.90;43.10;;;;;;5029307;28;20072;-48
2022/07/25 10:47:26;;;;;;;2.80;2.33;;;28.90;43.20;;;;;;5030707;28;20064;-50
2022/07/25 10:49:56;;;;;;;;;;;29.00;43.80;;;;;;5042361;28;20064;-47
2022/07/25 10:52:59;;;;;;;6.80;2.90;;;29.10;43.90;;;;;;5052789;28;19970;-46
2022/07/25 10:55:29;;;;;;;5.35;2.50;;;29.30;43.20;;;;;;5040301;28;20507;-49
2022/07/25 10:58:05;;;;;;;4.53;2.75;;;29.40;43.40;;;;;;5037475;28;20048;-49
2022/07/25 11:00:53;;;;;;;4.45;2.13;;;29.50;44.00;;;;;;5053468;28;20045;-47
2022/07/25 11:03:21;;;;;;;2.70;1.70;;;29.60;43.60;;;;;;5047002;28;20041;-48
2022/07/25 11:05:50;;;;;;;2.95;1.70;;;29.70;43.50;;;;;;5030562;28;20113;-46
2022/07/25 11:08:28;;;;;;;3.28;1.73;;;29.80;43.60;;;;;;5038654;28;20501;-48
2022/07/25 11:10:57;;;;;;;5.78;1.90;;;29.90;43.30;;;;;;5042245;22;20168;-48
2022/07/25 11:13:29;;;;;;;3.08;1.85;;;30.00;42.40;;;;;;5011865;28;20370;-47
2022/07/25 11:15:57;;;;;;;;;;;30.10;42.00;;;;;;5029290;28;20103;-47
2022/07/25 11:18:35;;;;;;;1.98;1.73;;;30.20;42.70;;;;;;5031532;28;19983;-50
2022/07/25 11:21:08;;;;;;;2.42;1.88;;;30.20;42.80;;;;;;5020403;28;20055;-47
2022/07/25 11:23:35;;;;;;;3.30;2.25;;;30.20;42.70;;;;;;5016964;28;20034;-48
2022/07/25 11:26:12;;;;;;;4.18;2.45;;;30.30;42.50;;;;;;5024467;28;20030;-46
2022/07/25 11:28:43;;;;;;;4.70;2.40;;;30.30;42.40;;;;;;5017158;28;20042;-48
2022/07/25 11:31:13;;;;;;;5.32;2.40;;;30.40;42.90;;;;;;5014356;28;20498;-47
2022/07/25 11:33:49;;;;;;;2.53;1.80;;;30.60;42.90;;;;;;5020291;28;20049;-49
2022/07/25 11:36:16;;;;;;;3.13;2.08;;;30.70;43.30;;;;;;5024748;28;20053;-48
2022/07/25 11:38:47;;;;;;;4.00;2.40;;;30.90;42.90;;;;;;5012584;28;20046;-49
2022/07/25 11:41:13;;;;;;;2.67;1.83;;;31.10;42.50;;;;;;5015193;28;20042;-47
2022/07/25 11:43:49;;;;;;;2.65;2.22;;;31.20;42.60;;;;;;5015996;28;20097;-50
2022/07/25 11:46:18;;;;;;;3.90;2.42;;;31.30;41.70;;;;;;5024245;28;20044;-50
2022/07/25 11:48:48;;;;;;;2.72;1.90;;;31.40;41.90;;;;;;5032034;28;20073;-48
2022/07/25 11:51:16;;;;;;;2.78;2.10;;;31.50;41.70;;;;;;5027102;28;20086;-48
2022/07/25 11:53:50;;;;;;;1.90;1.50;;;31.50;41.70;;;;;;5024468;28;20045;-47
2022/07/25 11:56:24;;;;;;;4.22;1.52;;;31.60;41.10;;;;;;5017525;28;20101;-50
2022/07/25 11:59:09;;;;;;;3.25;1.60;;;31.60;41.00;;;;;;5011640;28;20042;-48
2022/07/25 12:01:39;;;;;;;1.98;1.60;;;31.70;40.80;;;;;;5012338;28;20451;-47
2022/07/25 12:04:17;;;;;;;1.85;1.30;;;31.60;41.10;;;;;;5020549;28;20045;-48
2022/07/25 12:06:47;;;;;;;3.55;1.73;;;31.60;41.10;;;;;;5016118;28;20457;-48
2022/07/25 12:09:19;;;;;;;2.28;1.75;;;31.60;40.80;;;;;;5025464;28;20042;-50
2022/07/25 12:11:48;;;;;;;2.75;1.60;;;31.60;40.70;;;;;;5016599;28;20410;-51
2022/07/25 12:14:15;;;;;;;2.63;1.90;;;31.70;40.60;;;;;;5013663;28;20176;-50
2022/07/25 12:16:42;;;;;;;5.20;1.80;;;31.60;40.60;;;;;;5022345;28;20414;-48
2022/07/25 12:19:17;;;;;;;2.10;1.58;;;31.60;40.50;;;;;;5020187;28;20048;-52
2022/07/25 12:21:47;;;;;;;2.15;1.60;;;31.60;40.30;;;;;;5019232;28;20036;-49
2022/07/25 12:24:13;;;;;;;2.22;1.63;;;31.50;40.20;;;;;;5022410;28;20046;-47
2022/07/25 12:26:42;;;;;;;3.13;1.33;;;31.40;40.20;;;;;;5021375;28;20058;-51
2022/07/25 12:29:09;;;;;;;4.53;1.92;;;31.40;40.20;;;;;;5013264;28;20042;-49
2022/07/25 12:31:39;;;;;;;2.55;1.50;;;31.40;40.70;;;;;;5019796;28;20034;-49
2022/07/25 12:34:05;;;;;;;8.40;1.50;;;31.40;40.50;;;;;;5029128;28;20049;-50
2022/07/25 12:36:34;;;;;;;3.22;1.33;;;31.40;40.30;;;;;;5027067;28;20454;-48
2022/07/25 12:39:01;;;;;;;3.33;1.48;;;31.50;40.40;;;;;;5009991;28;20045;-51
2022/07/25 12:41:27;;;;;;;3.55;2.22;;;31.60;40.90;;;;;;5017684;28;20096;-49
2022/07/25 12:43:57;;;;;;;2.67;1.88;;;31.80;40.60;;;;;;5010477;28;20514;-48
2022/07/25 12:46:29;;;;;;;2.30;1.30;;;31.80;40.50;;;;;;5010912;28;20064;-49
2022/07/25 12:49:00;;;;;;;1.88;1.25;;;32.00;39.90;;;;;;5012102;28;20041;-48
2022/07/25 12:51:27;;;;;;;2.15;1.30;;;32.20;40.00;;;;;;5022814;28;20037;-48
2022/07/25 12:53:54;;;;;;;2.60;1.33;;;32.20;39.80;;;;;;5030017;28;20509;-51
2022/07/25 12:56:20;;;;;;;1.75;1.50;;;32.40;39.80;;;;;;5010180;28;20046;-48
2022/07/25 12:58:49;;;;;;;3.28;1.50;;;32.60;39.10;;;;;;5013645;28;20038;-48
2022/07/25 13:01:20;;;;;;;2.50;1.67;;;32.60;38.90;;;;;;5019505;28;20034;-49
2022/07/25 13:03:47;;;;;;;2.10;1.70;;;32.70;39.00;;;;;;5010527;28;20092;-48
2022/07/25 13:06:14;;;;;;;5.55;1.33;;;32.80;38.60;;;;;;4991820;28;20057;-50